createdAt,value
2023-04-14T00:01:14.975Z,26.20
2023-04-14T00:03:43.250Z,24.03
2023-04-14T00:06:12.856Z,23.57
2023-04-14T00:08:40.992Z,27.88
2023-04-14T00:11:09.504Z,26.57
2023-04-14T00:13:38.025Z,27.53
2023-04-14T00:16:07.112Z,25.43
2023-04-14T00:18:35.313Z,26.80
2023-04-14T00:21:03.508Z,27.73
2023-04-14T00:23:33.027Z,25.60
2023-04-14T00:26:01.210Z,29.10
2023-04-14T00:28:29.354Z,29.50
2023-04-14T00:30:57.531Z,27.43
2023-04-14T00:33:25.718Z,29.13
2023-04-14T00:35:53.860Z,27.73
2023-04-14T00:38:22.034Z,28.73
2023-04-14T00:40:51.643Z,25.60
2023-04-14T00:43:20.375Z,27.10
2023-04-14T00:45:52.480Z,26.87
2023-04-14T00:48:21.102Z,27.73
2023-04-14T00:50:49.513Z,26.77
2023-04-14T00:53:17.725Z,29.40
2023-04-14T00:55:45.939Z,28.70
2023-04-14T00:58:16.894Z,26.97
2023-04-14T01:00:45.117Z,26.27
2023-04-14T01:03:13.474Z,30.53
2023-04-14T01:05:41.859Z,25.53
2023-04-14T01:08:10.016Z,28.13
2023-04-14T01:10:46.966Z,26.07
2023-04-14T01:13:33.607Z,25.40
2023-04-14T01:16:06.118Z,28.43
2023-04-14T01:18:41.385Z,27.73
2023-04-14T01:21:14.445Z,29.83
2023-04-14T01:23:50.090Z,26.73
2023-04-14T01:26:21.605Z,24.50
2023-04-14T01:29:37.707Z,29.10
2023-04-14T01:32:10.606Z,25.93
2023-04-14T01:34:45.891Z,27.10
2023-04-14T01:37:17.280Z,23.70
2023-04-14T01:39:54.773Z,25.63
2023-04-14T01:42:31.280Z,25.37
2023-04-14T01:45:04.839Z,24.77
2023-04-14T01:47:35.989Z,27.03
2023-04-14T01:50:06.521Z,26.73
2023-04-14T01:52:36.855Z,29.03
2023-04-14T01:55:06.978Z,25.53
2023-04-14T01:57:37.111Z,31.10
2023-04-14T02:00:07.861Z,26.93
2023-04-14T02:02:39.729Z,29.73
2023-04-14T02:05:11.037Z,27.17
2023-04-14T02:07:41.590Z,28.13
2023-04-14T02:10:11.697Z,31.53
2023-04-14T02:12:42.459Z,25.30
2023-04-14T02:15:13.723Z,28.97
2023-04-14T02:17:43.978Z,28.30
2023-04-14T02:20:14.300Z,28.47
2023-04-14T02:22:42.584Z,29.83
2023-04-14T02:25:11.122Z,29.90
2023-04-14T02:27:46.281Z,29.40
2023-04-14T02:30:20.448Z,33.87
2023-04-14T02:32:59.344Z,32.80
2023-04-14T02:35:29.988Z,30.03
2023-04-14T02:38:06.067Z,30.30
2023-04-14T02:40:37.779Z,30.47
2023-04-14T02:43:12.841Z,34.20
2023-04-14T02:45:43.971Z,30.67
2023-04-14T02:48:15.924Z,32.10
2023-04-14T02:50:47.482Z,31.93
2023-04-14T02:53:19.557Z,33.97
2023-04-14T02:55:50.414Z,31.00
2023-04-14T02:58:19.329Z,37.60
2023-04-14T03:00:48.156Z,33.23
2023-04-14T03:03:19.053Z,35.43
2023-04-14T03:05:49.259Z,38.60
2023-04-14T03:08:18.879Z,40.33
2023-04-14T03:10:49.060Z,34.67
2023-04-14T03:13:19.285Z,39.87
2023-04-14T03:15:48.585Z,40.43
2023-04-14T03:18:19.168Z,45.57
2023-04-14T03:20:48.645Z,41.60
2023-04-14T03:23:19.019Z,43.20
2023-04-14T03:25:48.537Z,48.97
2023-04-14T03:28:20.529Z,53.17
2023-04-14T03:30:52.492Z,44.77
2023-04-14T03:33:24.932Z,50.47
2023-04-14T03:35:54.856Z,47.67
2023-04-14T03:38:26.328Z,48.53
2023-04-14T03:40:55.250Z,49.77
2023-04-14T03:43:25.043Z,53.77
2023-04-14T03:45:53.158Z,55.27
2023-04-14T03:48:26.257Z,53.87
2023-04-14T03:50:56.700Z,53.93
2023-04-14T03:53:26.315Z,54.77
2023-04-14T03:55:57.943Z,55.50
2023-04-14T03:58:30.107Z,71.30
2023-04-14T04:00:59.159Z,66.80
2023-04-14T04:03:30.191Z,65.20
2023-04-14T04:05:58.783Z,63.77
2023-04-14T04:08:28.039Z,64.33
2023-04-14T04:10:57.506Z,74.53
2023-04-14T04:13:26.227Z,75.13
2023-04-14T04:15:55.599Z,67.10
2023-04-14T04:18:27.056Z,64.93
2023-04-14T04:20:59.948Z,66.37
2023-04-14T04:23:31.799Z,69.00
2023-04-14T04:26:00.523Z,56.87
2023-04-14T04:28:29.087Z,58.70
2023-04-14T04:30:59.419Z,61.80
2023-04-14T04:33:29.015Z,56.83
2023-04-14T04:35:58.774Z,56.43
2023-04-14T04:38:26.929Z,57.37
2023-04-14T04:40:55.435Z,62.70
2023-04-14T04:43:23.667Z,56.27
2023-04-14T04:46:07.080Z,59.10
2023-04-14T04:48:35.315Z,55.10
2023-04-14T04:51:04.963Z,52.90
2023-04-14T04:53:33.286Z,59.17
2023-04-14T04:56:02.504Z,59.13
2023-04-14T04:58:30.755Z,56.10
2023-04-14T05:00:58.905Z,67.40
2023-04-14T05:03:27.289Z,58.77
2023-04-14T05:05:55.493Z,50.67
2023-04-14T05:08:25.041Z,52.70
2023-04-14T05:10:53.204Z,55.87
2023-04-14T05:13:22.647Z,56.40
2023-04-14T05:15:50.922Z,50.07
2023-04-14T05:18:19.573Z,54.70
2023-04-14T05:20:47.714Z,49.37
2023-04-14T05:23:16.083Z,43.83
2023-04-14T05:25:47.506Z,45.03
2023-04-14T05:28:16.356Z,53.23
2023-04-14T05:30:44.463Z,56.13
2023-04-14T05:33:12.836Z,49.00
2023-04-14T05:35:41.127Z,50.47
2023-04-14T05:38:09.380Z,55.07
2023-04-14T05:40:37.731Z,48.23
2023-04-14T05:43:07.319Z,51.67
2023-04-14T05:45:35.586Z,65.47
2023-04-14T05:48:03.875Z,56.87
2023-04-14T05:50:33.513Z,51.37
2023-04-14T05:53:02.042Z,46.30
2023-04-14T05:55:30.446Z,49.73
2023-04-14T05:57:58.598Z,44.17
2023-04-14T06:00:28.663Z,46.10
2023-04-14T06:02:57.073Z,41.63
2023-04-14T06:05:25.471Z,45.73
2023-04-14T06:07:53.638Z,41.33
2023-04-14T06:10:21.906Z,39.80
2023-04-14T06:12:50.067Z,41.20
2023-04-14T06:15:18.350Z,35.63
2023-04-14T06:17:48.438Z,32.73
2023-04-14T06:20:16.657Z,32.40
2023-04-14T06:22:44.828Z,32.43
2023-04-14T06:25:13.166Z,31.48
2023-04-14T06:27:41.297Z,38.13
2023-04-14T06:30:10.446Z,30.67
2023-04-14T06:32:38.761Z,39.07
2023-04-14T06:35:16.407Z,35.03
2023-04-14T06:37:51.673Z,28.83
2023-04-14T06:40:19.909Z,28.02
2023-04-14T06:42:48.081Z,29.08
2023-04-14T06:45:16.369Z,29.33
2023-04-14T06:47:44.570Z,27.87
2023-04-14T06:50:14.548Z,27.58
2023-04-14T06:52:42.721Z,26.33
2023-04-14T06:55:11.411Z,24.57
2023-04-14T06:57:39.557Z,30.60
2023-04-14T07:00:09.519Z,25.85
2023-04-14T07:02:37.773Z,25.65
2023-04-14T07:05:07.339Z,23.10
2023-04-14T07:07:37.932Z,25.17
2023-04-14T07:10:06.917Z,23.08
2023-04-14T07:12:35.167Z,27.03
2023-04-14T07:15:03.751Z,28.83
2023-04-14T07:17:31.934Z,33.00
2023-04-14T07:20:00.309Z,22.65
2023-04-14T07:22:28.454Z,24.30
2023-04-14T07:24:58.180Z,25.40
2023-04-14T07:27:28.699Z,23.48
2023-04-14T07:29:56.868Z,21.77
2023-04-14T07:32:25.126Z,21.27
2023-04-14T07:34:53.253Z,22.48
2023-04-14T07:37:21.916Z,19.38
2023-04-14T07:39:50.065Z,18.38
2023-04-14T07:42:19.627Z,17.52
2023-04-14T07:44:47.880Z,16.85
2023-04-14T07:47:16.228Z,25.80
2023-04-14T07:49:44.628Z,13.63
2023-04-14T07:52:12.810Z,15.13
2023-04-14T07:54:40.949Z,12.48
2023-04-14T07:57:10.826Z,16.92
2023-04-14T07:59:42.844Z,16.27
2023-04-14T08:02:11.453Z,14.57
2023-04-14T08:04:39.919Z,16.38
2023-04-14T08:07:08.132Z,15.80
2023-04-14T08:09:36.276Z,18.73
2023-04-14T08:12:04.626Z,18.33
2023-04-14T08:14:32.810Z,17.08
2023-04-14T08:17:02.366Z,22.50
2023-04-14T08:19:31.493Z,17.77
2023-04-14T08:21:59.800Z,18.58
2023-04-14T08:24:27.941Z,17.42
2023-04-14T08:26:56.848Z,15.73
2023-04-14T08:29:24.998Z,13.88
2023-04-14T08:31:53.213Z,14.90
2023-04-14T08:34:28.279Z,16.73
2023-04-14T08:36:57.770Z,13.55
2023-04-14T08:39:26.191Z,13.48
2023-04-14T08:41:56.854Z,12.82
2023-04-14T08:44:25.012Z,12.60
2023-04-14T08:46:53.990Z,12.93
2023-04-14T08:49:29.753Z,12.82
2023-04-14T08:52:02.732Z,15.40
2023-04-14T08:54:31.629Z,13.80
2023-04-14T08:57:00.792Z,15.45
2023-04-14T08:59:30.156Z,13.43
2023-04-14T09:01:59.794Z,23.00
2023-04-14T09:04:30.627Z,14.65
2023-04-14T09:06:58.900Z,15.13
2023-04-14T09:09:27.281Z,12.85
2023-04-14T09:11:56.148Z,12.07
2023-04-14T09:14:25.156Z,10.75
2023-04-14T09:16:54.945Z,12.02
2023-04-14T09:19:24.239Z,16.83
2023-04-14T09:21:55.056Z,16.10
2023-04-14T09:24:30.970Z,13.40
2023-04-14T09:27:03.434Z,10.98
2023-04-14T09:29:31.986Z,13.18
2023-04-14T09:32:00.326Z,12.70
2023-04-14T09:34:28.541Z,10.65
2023-04-14T09:37:06.416Z,14.73
2023-04-14T09:39:35.001Z,13.23
2023-04-14T09:42:04.249Z,10.80
2023-04-14T09:44:32.588Z,11.00
2023-04-14T09:47:02.982Z,9.98
2023-04-14T09:49:31.190Z,10.60
2023-04-14T09:52:06.652Z,9.98
2023-04-14T09:54:35.079Z,11.00
2023-04-14T09:57:04.247Z,9.63
2023-04-14T09:59:34.320Z,10.65
2023-04-14T10:02:06.114Z,9.63
2023-04-14T10:04:34.850Z,11.43
2023-04-14T10:07:03.250Z,13.02
2023-04-14T10:09:37.806Z,15.27
2023-04-14T10:12:10.377Z,10.10
2023-04-14T10:14:38.960Z,9.98
2023-04-14T10:17:07.723Z,11.13
2023-04-14T10:19:37.753Z,9.93
2023-04-14T10:22:06.791Z,10.18
2023-04-14T10:24:36.779Z,11.73
2023-04-14T10:27:06.213Z,15.70
2023-04-14T10:29:36.032Z,12.05
2023-04-14T10:32:08.316Z,10.63
2023-04-14T10:34:40.022Z,8.93
2023-04-14T10:37:16.969Z,12.40
2023-04-14T10:39:56.310Z,11.30
2023-04-14T10:42:25.024Z,9.93
2023-04-14T10:45:07.698Z,9.52
2023-04-14T10:47:40.990Z,14.73
2023-04-14T10:50:13.713Z,8.90
2023-04-14T10:52:51.020Z,8.85
2023-04-14T10:55:23.423Z,11.25
2023-04-14T10:57:51.662Z,14.05
2023-04-14T11:00:25.688Z,12.25
2023-04-14T11:03:04.527Z,9.57
2023-04-14T11:05:34.289Z,8.55
2023-04-14T11:08:12.951Z,10.55
2023-04-14T11:10:48.352Z,10.63
2023-04-14T11:13:17.760Z,7.65
2023-04-14T11:16:02.428Z,8.73
2023-04-14T11:18:35.741Z,8.30
2023-04-14T11:21:06.211Z,7.88
2023-04-14T11:23:35.806Z,7.68
2023-04-14T11:26:07.357Z,6.68
2023-04-14T11:28:36.503Z,11.32
2023-04-14T11:31:06.279Z,7.88
2023-04-14T11:33:36.473Z,9.27
2023-04-14T11:36:06.447Z,7.80
2023-04-14T11:38:36.566Z,7.75
2023-04-14T11:41:06.283Z,6.07
2023-04-14T11:43:34.806Z,7.50
2023-04-14T11:46:08.447Z,8.23
2023-04-14T11:48:36.976Z,5.93
2023-04-14T11:51:05.643Z,6.63
2023-04-14T11:53:34.653Z,7.95
2023-04-14T11:56:08.738Z,8.85
2023-04-14T11:58:37.240Z,5.50
2023-04-14T12:01:05.693Z,5.13
2023-04-14T12:03:35.641Z,6.75
2023-04-14T12:06:04.646Z,5.32
2023-04-14T12:08:33.948Z,6.93
2023-04-14T12:11:15.185Z,5.00
2023-04-14T12:13:44.306Z,5.47
2023-04-14T12:16:13.299Z,6.70
2023-04-14T12:18:41.827Z,8.27
2023-04-14T12:21:12.222Z,5.95
2023-04-14T12:23:41.461Z,7.50
2023-04-14T12:26:12.516Z,5.43
2023-04-14T12:28:42.654Z,7.25
2023-04-14T12:31:11.739Z,8.43
2023-04-14T12:33:40.142Z,7.53
2023-04-14T12:36:11.048Z,4.28
2023-04-14T12:38:39.824Z,7.80
2023-04-14T12:41:08.032Z,6.20
2023-04-14T12:43:38.295Z,7.68
2023-04-14T12:46:08.096Z,7.03
2023-04-14T12:48:45.016Z,4.90
2023-04-14T12:51:15.031Z,6.55
2023-04-14T12:53:44.086Z,4.25
2023-04-14T12:56:14.107Z,4.45
2023-04-14T12:58:44.041Z,2.58
2023-04-14T13:01:14.501Z,3.25
2023-04-14T13:03:47.744Z,4.63
2023-04-14T13:06:17.943Z,4.63
2023-04-14T13:08:47.254Z,3.00
2023-04-14T13:11:16.130Z,4.07
2023-04-14T13:13:45.441Z,5.32
2023-04-14T13:16:36.778Z,6.57
2023-04-14T13:19:09.017Z,5.70
2023-04-14T13:21:40.976Z,3.58
2023-04-14T13:24:09.450Z,2.83
2023-04-14T13:26:44.004Z,3.08
2023-04-14T13:29:13.287Z,5.85
2023-04-14T13:31:42.884Z,3.55
2023-04-14T13:34:11.860Z,3.30
2023-04-14T13:36:40.081Z,7.03
2023-04-14T13:39:08.333Z,3.63
2023-04-14T13:41:39.896Z,5.85
2023-04-14T13:44:08.089Z,5.22
2023-04-14T13:46:40.876Z,6.43
2023-04-14T13:49:36.372Z,7.50
2023-04-14T13:52:13.015Z,4.97
2023-04-14T13:54:42.354Z,5.22
2023-04-14T13:57:26.520Z,13.00
2023-04-14T13:59:54.721Z,5.28
2023-04-14T14:02:25.987Z,8.10
2023-04-14T14:05:09.564Z,7.50
2023-04-14T14:07:40.888Z,5.40
2023-04-14T14:10:10.958Z,6.72
2023-04-14T14:12:39.353Z,3.97
2023-04-14T14:15:08.698Z,6.63
2023-04-14T14:17:43.488Z,8.10
2023-04-14T14:20:13.342Z,6.68
2023-04-14T14:22:55.338Z,6.18
2023-04-14T14:25:26.258Z,4.28
2023-04-14T14:27:54.436Z,6.45
2023-04-14T14:30:22.641Z,4.78
2023-04-14T14:32:51.511Z,4.57
2023-04-14T14:35:21.147Z,5.18
2023-04-14T14:37:49.334Z,4.68
2023-04-14T14:40:17.469Z,6.28
2023-04-14T14:42:45.606Z,4.43
2023-04-14T14:45:14.293Z,4.60
2023-04-14T14:47:42.551Z,6.22
2023-04-14T14:50:11.081Z,8.20
2023-04-14T14:52:40.508Z,3.72
2023-04-14T14:55:09.689Z,5.60
2023-04-14T14:57:38.015Z,5.05
2023-04-14T15:00:07.994Z,11.32
2023-04-14T15:02:36.570Z,9.07
2023-04-14T15:05:05.777Z,8.77
2023-04-14T15:07:33.929Z,13.52
2023-04-14T15:10:04.572Z,7.28
2023-04-14T15:12:33.220Z,9.43
2023-04-14T15:15:01.388Z,8.15
2023-04-14T15:17:29.590Z,6.65
2023-04-14T15:19:58.383Z,8.10
2023-04-14T15:22:26.520Z,6.88
2023-04-14T15:24:54.871Z,9.63
2023-04-14T15:27:24.375Z,8.02
2023-04-14T15:29:53.114Z,9.18
2023-04-14T15:32:25.277Z,7.35
2023-04-14T15:34:54.355Z,8.68
2023-04-14T15:37:22.766Z,6.20
2023-04-14T15:39:51.386Z,8.73
2023-04-14T15:42:19.676Z,10.00
2023-04-14T15:44:50.340Z,7.53
2023-04-14T15:47:18.846Z,12.27
2023-04-14T15:49:48.532Z,5.80
2023-04-14T15:52:18.159Z,7.50
2023-04-14T15:54:46.316Z,10.15
2023-04-14T15:57:14.503Z,8.77
2023-04-14T15:59:42.616Z,6.60
2023-04-14T16:02:12.502Z,7.00
2023-04-14T16:04:40.722Z,12.23
2023-04-14T16:07:08.989Z,10.15
2023-04-14T16:09:37.572Z,6.10
2023-04-14T16:12:05.755Z,7.82
2023-04-14T16:14:35.364Z,9.10
2023-04-14T16:17:03.525Z,9.68
2023-04-14T16:19:33.067Z,9.20
2023-04-14T16:22:02.780Z,6.57
2023-04-14T16:24:33.383Z,7.55
2023-04-14T16:27:01.498Z,8.60
2023-04-14T16:29:30.098Z,12.00
2023-04-14T16:31:58.297Z,9.65
2023-04-14T16:34:26.422Z,10.38
2023-04-14T16:36:55.962Z,11.23
2023-04-14T16:39:24.107Z,6.82
2023-04-14T16:41:52.314Z,8.05
2023-04-14T16:44:20.453Z,6.75
2023-04-14T16:46:48.766Z,9.88
2023-04-14T16:49:17.430Z,7.45
2023-04-14T16:51:46.194Z,7.72
2023-04-14T16:54:15.703Z,6.25
2023-04-14T16:56:43.926Z,6.10
2023-04-14T16:59:12.040Z,5.72
2023-04-14T17:01:40.251Z,8.48
2023-04-14T17:04:08.841Z,8.20
2023-04-14T17:06:37.538Z,7.80
2023-04-14T17:09:05.781Z,6.13
2023-04-14T17:11:35.386Z,8.57
2023-04-14T17:14:03.699Z,9.93
2023-04-14T17:16:32.459Z,7.55
2023-04-14T17:19:01.121Z,10.90
2023-04-14T17:21:29.409Z,11.88
2023-04-14T17:23:57.721Z,8.70
2023-04-14T17:26:25.894Z,8.57
2023-04-14T17:28:55.441Z,7.05
2023-04-14T17:31:24.084Z,7.90
2023-04-14T17:33:54.955Z,9.18
2023-04-14T17:36:23.285Z,10.75
2023-04-14T17:38:52.487Z,11.68
2023-04-14T17:41:20.776Z,12.55
2023-04-14T17:43:49.058Z,10.52
2023-04-14T17:46:22.529Z,12.70
2023-04-14T17:48:51.331Z,15.07
2023-04-14T17:51:19.491Z,14.00
2023-04-14T17:53:49.892Z,10.18
2023-04-14T17:56:18.076Z,10.43
2023-04-14T17:58:47.200Z,14.30
2023-04-14T18:01:15.422Z,16.67
2023-04-14T18:03:45.481Z,11.50
2023-04-14T18:06:13.720Z,11.65
2023-04-14T18:08:42.383Z,16.40
2023-04-14T18:11:12.073Z,10.95
2023-04-14T18:13:40.211Z,13.52
2023-04-14T18:16:09.417Z,13.40
2023-04-14T18:18:39.018Z,11.75
2023-04-14T18:21:09.506Z,14.65
2023-04-14T18:23:37.648Z,13.63
2023-04-14T18:28:38.189Z,12.77
2023-04-14T18:31:07.242Z,15.05
2023-04-14T18:33:37.682Z,12.25
2023-04-14T18:36:08.778Z,13.75
2023-04-14T18:38:38.862Z,12.43
2023-04-14T18:41:07.485Z,14.30
2023-04-14T18:43:35.736Z,11.68
2023-04-14T18:46:03.999Z,15.52
2023-04-14T18:48:32.329Z,17.05
2023-04-14T18:51:04.402Z,13.88
2023-04-14T18:53:32.867Z,12.85
2023-04-14T18:56:02.790Z,11.40
2023-04-14T18:58:31.713Z,15.13
2023-04-14T19:01:00.244Z,14.10
2023-04-14T19:03:28.540Z,13.05
2023-04-14T19:06:02.510Z,14.63
2023-04-14T19:08:30.683Z,16.55
2023-04-14T19:10:59.997Z,15.88
2023-04-14T19:13:29.587Z,14.43
2023-04-14T19:16:06.130Z,12.57
2023-04-14T19:18:34.326Z,13.77
2023-04-14T19:21:02.710Z,11.32
2023-04-14T19:23:31.402Z,14.60
2023-04-14T19:26:00.360Z,12.20
2023-04-14T19:28:30.169Z,13.60
2023-04-14T19:31:00.147Z,18.63
2023-04-14T19:33:31.484Z,12.50
2023-04-14T19:35:59.987Z,13.48
2023-04-14T19:38:28.654Z,12.70
2023-04-14T19:40:56.956Z,13.27
2023-04-14T19:43:25.803Z,12.18
2023-04-14T19:45:57.815Z,12.15
2023-04-14T19:48:26.344Z,14.45
2023-04-14T19:50:55.485Z,11.50
2023-04-14T19:53:27.253Z,13.75
2023-04-14T19:55:57.962Z,10.80
2023-04-14T19:58:27.636Z,17.05
2023-04-14T20:00:58.841Z,10.27
2023-04-14T20:03:28.244Z,15.10
2023-04-14T20:08:43.771Z,10.63
2023-04-14T20:11:12.273Z,13.88
2023-04-14T20:13:40.435Z,11.85
2023-04-14T20:16:10.360Z,13.70
2023-04-14T20:18:38.567Z,11.98
2023-04-14T20:21:07.472Z,11.45
2023-04-14T20:23:35.684Z,12.85
2023-04-14T20:26:03.887Z,12.80
2023-04-14T20:28:32.084Z,13.32
2023-04-14T20:31:00.397Z,13.60
2023-04-14T20:33:30.251Z,11.95
2023-04-14T20:36:01.502Z,15.63
2023-04-14T20:38:30.250Z,15.20
2023-04-14T20:40:59.175Z,16.15
2023-04-14T20:43:33.500Z,14.57
2023-04-14T20:46:01.881Z,15.82
2023-04-14T20:48:32.179Z,13.52
2023-04-14T20:51:01.423Z,16.73
2023-04-14T20:53:30.138Z,13.20
2023-04-14T20:55:58.381Z,14.23
2023-04-14T20:58:26.602Z,14.68
2023-04-14T21:00:56.654Z,13.10
2023-04-14T21:03:25.400Z,13.73
2023-04-14T21:05:55.064Z,14.68
2023-04-14T21:08:23.231Z,14.32
2023-04-14T21:11:14.326Z,15.60
2023-04-14T21:15:41.438Z,12.70
2023-04-14T21:16:29.322Z,16.85
2023-04-14T21:18:57.792Z,14.70
2023-04-14T21:21:28.025Z,17.52
2023-04-14T21:23:56.704Z,15.15
2023-04-14T21:26:24.880Z,15.20
2023-04-14T21:28:53.175Z,15.80
2023-04-14T21:31:21.642Z,13.90
2023-04-14T21:33:49.769Z,17.00
2023-04-14T21:36:18.839Z,13.45
2023-04-14T21:38:48.378Z,15.18
2023-04-14T21:41:16.507Z,18.88
2023-04-14T21:43:44.669Z,14.25
2023-04-14T21:46:12.914Z,16.30
2023-04-14T21:48:41.933Z,15.15
2023-04-14T21:51:12.870Z,16.23
2023-04-14T21:53:44.806Z,14.05
2023-04-14T21:56:14.614Z,16.70
2023-04-14T21:58:42.793Z,16.98
2023-04-14T22:01:11.535Z,16.55
2023-04-14T22:03:41.500Z,17.10
2023-04-14T22:06:11.400Z,15.95
2023-04-14T22:08:40.909Z,14.52
2023-04-14T22:11:09.165Z,15.73
2023-04-14T22:13:38.785Z,17.50
2023-04-14T22:16:07.877Z,17.70
2023-04-14T22:18:38.831Z,16.70
2023-04-14T22:21:07.227Z,16.63
2023-04-14T22:23:35.415Z,16.67
2023-04-14T22:26:03.599Z,18.95
2023-04-14T22:28:31.791Z,14.68
2023-04-14T22:31:01.729Z,17.45
2023-04-14T22:33:30.017Z,14.38
2023-04-14T22:36:00.132Z,16.35
2023-04-14T22:38:28.371Z,16.95
2023-04-14T22:40:56.561Z,18.20
2023-04-14T22:43:25.511Z,14.10
2023-04-14T22:45:54.612Z,12.75
2023-04-14T22:48:24.181Z,14.60
2023-04-14T22:50:52.349Z,15.77
2023-04-14T22:53:21.040Z,15.10
2023-04-14T22:55:49.322Z,13.75
2023-04-14T22:58:18.470Z,15.02
2023-04-14T23:00:47.486Z,14.35
2023-04-14T23:03:16.719Z,13.63
2023-04-14T23:05:46.502Z,16.80
2023-04-14T23:08:14.767Z,15.80
2023-04-14T23:10:43.002Z,15.63
2023-04-14T23:13:11.177Z,15.55
2023-04-14T23:15:39.348Z,17.55
2023-04-14T23:18:07.514Z,13.60
2023-04-14T23:20:36.368Z,13.05
2023-04-14T23:23:05.984Z,15.80
2023-04-14T23:25:34.184Z,14.68
2023-04-14T23:28:02.401Z,13.45
2023-04-14T23:30:30.610Z,15.85
2023-04-14T23:32:58.786Z,14.32
2023-04-14T23:35:27.024Z,16.10
2023-04-14T23:37:56.582Z,14.35
2023-04-14T23:40:26.194Z,13.68
2023-04-14T23:42:56.077Z,16.45
2023-04-14T23:45:24.350Z,14.65
2023-04-14T23:47:53.826Z,15.73
2023-04-14T23:50:22.209Z,14.52
2023-04-14T23:52:50.842Z,13.10
2023-04-14T23:55:19.782Z,18.63
